Time;durP1;ratioP1;P1;durP2;ratioP2;P2;SDS_P1;SDS_P2;PMS_P1;PMS_P2;Temp;Humidity;BMP_temperature;BMP_pressure;BME280_temperature;BME280_humidity;BME280_pressure;Samples;Min_cycle;Max_cycle;Signal;HPM_P1;HPM_P2
2023/07/30 00:01:39;;;;;;;4.57;1.35;;;;;;;22.63;47.52;100906.94;16117075;19;129759;-62
2023/07/30 00:07:01;;;;;;;5.18;1.13;;;;;;;22.62;47.78;100915.56;16120454;19;129525;-62
2023/07/30 00:12:23;;;;;;;5.70;1.25;;;;;;;22.60;47.42;100915.84;16121175;19;130619;-62
2023/07/30 00:17:45;;;;;;;4.55;1.30;;;;;;;22.59;47.60;100916.94;16120004;19;129780;-62
2023/07/30 00:23:07;;;;;;;3.75;1.15;;;;;;;22.57;47.63;100916.38;16120618;19;129842;-62
2023/07/30 00:28:29;;;;;;;5.00;1.20;;;;;;;22.56;47.60;100925.84;16116565;19;130001;-62
2023/07/30 00:33:51;;;;;;;3.38;1.10;;;;;;;22.55;47.83;100932.53;16117080;19;130859;-62
2023/07/30 00:39:13;;;;;;;5.68;1.23;;;;;;;22.53;47.92;100927.25;16119896;19;129933;-61
2023/07/30 00:44:35;;;;;;;2.95;0.95;;;;;;;22.52;47.73;100933.09;16115861;19;130191;-62
2023/07/30 00:49:57;;;;;;;3.72;0.90;;;;;;;22.51;47.66;100942.56;16116683;19;129878;-61
2023/07/30 00:55:20;;;;;;;3.40;0.88;;;;;;;22.51;47.66;100945.38;16118939;19;129813;-61
2023/07/30 01:00:42;;;;;;;2.05;1.00;;;;;;;22.50;47.64;100957.63;16114534;19;130070;-62
2023/07/30 01:06:04;;;;;;;2.30;0.88;;;;;;;22.48;47.73;100945.91;16115526;19;129368;-63
2023/07/30 01:11:27;;;;;;;2.30;0.80;;;;;;;22.47;47.63;100955.38;16111734;19;129284;-63
2023/07/30 01:16:49;;;;;;;3.28;1.17;;;;;;;22.45;47.72;100950.06;16109116;19;130825;-62
2023/07/30 01:22:11;;;;;;;2.42;0.90;;;;;;;22.44;47.69;100965.13;16108296;19;130269;-62
2023/07/30 01:27:40;;;;;;;2.30;0.80;;;;;;;22.42;47.79;100968.16;16107571;19;130546;-62
2023/07/30 01:33:04;;;;;;;1.23;0.60;;;;;;;22.42;47.37;100970.94;16108926;19;129349;-63
2023/07/30 01:38:26;;;;;;;3.63;0.85;;;;;;;22.41;47.88;100969.28;16112142;19;130602;-62
2023/07/30 01:43:48;;;;;;;3.50;0.90;;;;;;;22.40;47.70;100977.91;16127077;19;129688;-62
2023/07/30 01:49:10;;;;;;;2.63;0.80;;;;;;;22.40;47.68;100969.56;16125571;19;129406;-62
2023/07/30 01:54:32;;;;;;;2.55;0.80;;;;;;;22.38;47.71;100969.84;16128076;19;130805;-62
2023/07/30 01:59:54;;;;;;;1.65;0.70;;;;;;;22.36;47.75;100977.63;16128559;19;129925;-62
2023/07/30 02:05:16;;;;;;;1.75;0.63;;;;;;;22.36;47.64;100965.63;16123043;19;130998;-62
2023/07/30 02:10:38;;;;;;;2.65;0.80;;;;;;;22.34;47.88;100968.69;16128921;19;129978;-62
2023/07/30 02:16:00;;;;;;;2.47;0.70;;;;;;;22.34;47.95;100962.28;16128183;19;131002;-62
2023/07/30 02:21:22;;;;;;;3.20;0.73;;;;;;;22.33;47.36;100975.38;16125859;19;130955;-62
2023/07/30 02:26:43;;;;;;;2.85;0.80;;;;;;;22.32;47.61;100976.47;16128498;19;131281;-63
2023/07/30 02:32:06;;;;;;;4.32;0.90;;;;;;;22.31;47.46;100969.22;16127530;19;129272;-63
2023/07/30 02:37:28;;;;;;;2.08;0.70;;;;;;;22.30;47.59;100967.53;16121072;19;130304;-63
2023/07/30 02:42:50;;;;;;;2.53;0.80;;;;;;;22.30;47.67;100969.50;16129581;19;130798;-63
2023/07/30 02:48:12;;;;;;;1.33;0.57;;;;;;;22.29;47.33;100971.44;16120556;19;130917;-63
2023/07/30 02:53:33;;;;;;;1.75;0.90;;;;;;;22.28;47.79;100966.97;16121887;19;129313;-63
2023/07/30 02:58:57;;;;;;;2.20;0.60;;;;;;;22.27;47.69;100963.34;16125970;19;129865;-63
2023/07/30 03:04:18;;;;;;;1.88;0.77;;;;;;;22.26;47.45;100967.25;16122574;19;130248;-64
2023/07/30 03:09:40;;;;;;;1.98;0.57;;;;;;;22.25;47.84;100968.34;16120437;19;130639;-63
2023/07/30 03:15:03;;;;;;;1.77;0.73;;;;;;;22.25;47.60;100964.75;16122995;19;130116;-63
2023/07/30 03:20:25;;;;;;;3.28;0.85;;;;;;;22.23;47.39;100972.53;16123238;19;130341;-64
2023/07/30 03:25:47;;;;;;;1.63;0.60;;;;;;;22.22;47.60;100968.88;16121324;19;130094;-63
2023/07/30 03:31:09;;;;;;;1.92;0.57;;;;;;;22.22;47.25;100966.09;16121698;19;131461;-64
2023/07/30 03:36:31;;;;;;;2.20;0.73;;;;;;;22.22;47.71;100973.63;16117295;19;130912;-64
2023/07/30 03:41:53;;;;;;;2.45;0.80;;;;;;;22.21;47.36;100974.75;16122296;19;130492;-63
2023/07/30 03:47:15;;;;;;;1.85;0.70;;;;;;;22.20;47.83;100979.47;16121933;19;129413;-61
2023/07/30 03:52:37;;;;;;;1.83;0.63;;;;;;;22.19;47.67;100979.72;16122409;19;129877;-61
2023/07/30 03:57:59;;;;;;;2.92;0.70;;;;;;;22.19;47.24;100977.78;16120899;19;129609;-61
2023/07/30 04:03:21;;;;;;;2.45;0.80;;;;;;;22.19;47.38;100988.06;16114218;19;129698;-62
2023/07/30 04:08:43;;;;;;;2.60;0.80;;;;;;;22.18;47.49;100980.81;16115904;19;129659;-62
2023/07/30 04:14:07;;;;;;;2.13;0.80;;;;;;;22.17;47.83;100979.13;16120305;19;129493;-62
2023/07/30 04:19:29;;;;;;;3.67;0.87;;;;;;;22.17;47.64;100984.72;16121309;19;130475;-62
2023/07/30 04:24:51;;;;;;;2.45;0.98;;;;;;;22.17;47.71;100993.06;16119078;19;130257;-62
2023/07/30 04:30:13;;;;;;;2.47;0.90;;;;;;;22.15;47.16;100998.09;16118383;19;130920;-61
2023/07/30 04:35:35;;;;;;;2.28;0.73;;;;;;;22.15;47.28;100996.13;16121533;19;131166;-62
2023/07/30 04:40:58;;;;;;;2.30;0.80;;;;;;;22.16;47.32;100999.75;16117644;19;129720;-61
2023/07/30 04:46:20;;;;;;;1.83;0.52;;;;;;;22.15;47.48;100992.53;16116271;19;129767;-62
2023/07/30 04:51:42;;;;;;;2.83;0.90;;;;;;;22.13;47.48;101004.78;16118982;19;129949;-61
2023/07/30 04:57:05;;;;;;;1.85;0.70;;;;;;;22.13;47.48;101007.56;16118908;19;129472;-61
2023/07/30 05:02:27;;;;;;;1.70;0.70;;;;;;;22.13;47.55;101015.91;16116353;19;134463;-62
2023/07/30 05:07:49;;;;;;;5.55;0.73;;;;;;;22.12;47.33;101019.81;16118368;19;129823;-65
2023/07/30 05:13:12;;;;;;;3.00;0.93;;;;;;;22.12;47.12;101033.75;16110545;19;130696;-64
2023/07/30 05:18:34;;;;;;;2.78;0.77;;;;;;;22.11;47.31;101020.06;16111567;19;130561;-64
2023/07/30 05:23:56;;;;;;;4.63;1.30;;;;;;;22.11;47.30;101018.13;16109816;19;130525;-61
2023/07/30 05:29:18;;;;;;;4.85;1.00;;;;;;;22.11;47.16;101020.91;16102990;19;134563;-62
2023/07/30 05:34:40;;;;;;;7.07;1.30;;;;;;;22.10;46.96;101013.66;16097968;19;129983;-61
2023/07/30 05:40:03;;;;;;;7.18;1.10;;;;;;;22.09;46.99;101020.34;16106099;19;130857;-63
2023/07/30 05:45:24;;;;;;;10.93;1.85;;;;;;;22.09;46.68;101020.34;16101773;19;130829;-60
2023/07/30 05:50:46;;;;;;;6.80;1.30;;;;;;;22.08;46.77;101027.00;16111264;19;129334;-62
2023/07/30 05:56:08;;;;;;;6.32;1.52;;;;;;;22.08;47.16;101023.41;16112921;19;129598;-56
2023/07/30 06:01:30;;;;;;;6.00;1.33;;;;;;;22.07;47.24;101030.91;16113745;19;129633;-62
2023/07/30 06:06:52;;;;;;;6.40;1.30;;;;;;;22.06;46.67;101034.78;16114653;19;129590;-61
2023/07/30 06:12:14;;;;;;;7.43;1.70;;;;;;;22.05;46.76;101035.91;16115133;19;130379;-62
2023/07/30 06:17:36;;;;;;;9.07;2.00;;;;;;;22.06;47.02;101045.13;16112145;19;130668;-61
2023/07/30 06:22:58;;;;;;;6.00;1.15;;;;;;;22.06;46.68;101050.69;16113067;19;133230;-62
2023/07/30 06:28:23;;;;;;;5.97;1.40;;;;;;;22.05;46.89;101044.25;16122231;19;129901;-61
2023/07/30 06:33:45;;;;;;;9.20;1.73;;;;;;;22.03;46.50;101052.03;16127971;19;130283;-62
2023/07/30 06:39:07;;;;;;;7.10;1.58;;;;;;;22.05;46.81;101058.19;16126671;19;129463;-61
2023/07/30 06:44:29;;;;;;;10.32;1.83;;;;;;;22.04;46.64;101047.31;16128283;19;129721;-61
2023/07/30 06:49:51;;;;;;;7.05;1.42;;;;;;;22.03;46.35;101046.47;16127671;19;129422;-61
2023/07/30 06:55:13;;;;;;;4.68;1.48;;;;;;;22.03;46.72;101046.47;16128713;19;132380;-60
2023/07/30 07:00:35;;;;;;;5.47;1.20;;;;;;;22.02;46.68;101047.59;16126790;19;134450;-62
2023/07/30 07:05:57;;;;;;;6.35;1.45;;;;;;;22.05;46.46;101062.94;16128086;19;129611;-62
2023/07/30 07:11:19;;;;;;;7.10;1.77;;;;;;;22.04;46.85;101059.28;16127058;19;130269;-62
2023/07/30 07:16:41;;;;;;;7.13;1.60;;;;;;;22.02;46.64;101067.09;16124497;19;129339;-60
2023/07/30 07:22:05;;;;;;;5.57;1.52;;;;;;;22.02;46.57;101061.53;16122995;19;130239;-60
2023/07/30 07:27:27;;;;;;;7.82;1.75;;;;;;;22.01;46.64;101068.22;16123482;19;130539;-61
2023/07/30 07:32:52;;;;;;;6.00;1.55;;;;;;;22.01;46.51;101064.56;16124336;19;131462;-61
2023/07/30 07:38:14;;;;;;;10.87;2.37;;;;;;;22.07;46.58;101058.75;16118437;19;131004;-64
2023/07/30 07:43:36;;;;;;;5.43;1.42;;;;;;;22.12;46.41;101067.19;16121811;19;131155;-64
2023/07/30 07:48:58;;;;;;;5.30;1.40;;;;;;;22.16;46.06;101077.75;16117724;19;133021;-64
2023/07/30 07:54:20;;;;;;;7.05;1.77;;;;;;;22.15;46.46;101074.16;16115509;19;130095;-63
2023/07/30 07:59:44;;;;;;;6.32;1.60;;;;;;;22.19;46.35;101082.81;16116720;19;129987;-64
2023/07/30 08:05:07;;;;;;;6.25;1.70;;;;;;;22.27;46.06;101079.59;16117380;19;131368;-63
2023/07/30 08:10:29;;;;;;;10.05;2.08;;;;;;;22.29;46.31;101077.34;16120428;19;129622;-63
2023/07/30 08:15:51;;;;;;;9.63;2.13;;;;;;;22.33;46.31;101084.06;16118308;19;130208;-64
2023/07/30 08:21:13;;;;;;;9.88;1.85;;;;;;;22.33;46.21;101078.50;16116154;19;130985;-64
2023/07/30 08:26:35;;;;;;;8.57;2.00;;;;;;;22.33;46.41;101083.25;16117356;19;129826;-64
2023/07/30 08:31:57;;;;;;;10.90;2.60;;;;;;;22.31;45.93;101091.84;16115454;19;130057;-64
2023/07/30 08:37:19;;;;;;;13.45;2.85;;;;;;;22.28;46.15;101090.44;16116514;19;130813;-64
2023/07/30 08:42:41;;;;;;;11.07;2.20;;;;;;;22.31;46.26;101080.72;16114803;19;129778;-63
2023/07/30 08:48:03;;;;;;;10.60;2.10;;;;;;;22.30;46.26;101090.16;16117832;19;130053;-64
2023/07/30 08:53:28;;;;;;;8.63;1.90;;;;;;;22.33;46.18;101084.06;16110935;19;129891;-63
2023/07/30 08:58:53;;;;;;;9.90;1.95;;;;;;;22.34;45.96;101080.19;16112073;19;130416;-64
2023/07/30 09:04:17;;;;;;;6.13;1.60;;;;;;;22.42;45.91;101074.09;16113324;19;129680;-63
2023/07/30 09:09:41;;;;;;;10.98;2.05;;;;;;;22.48;45.68;101079.72;16113672;19;129489;-63
2023/07/30 09:15:04;;;;;;;5.75;1.50;;;;;;;22.48;45.75;101085.28;16116151;19;129835;-63
2023/07/30 09:20:27;;;;;;;9.43;2.10;;;;;;;22.50;45.70;101088.66;16115698;19;129657;-63
2023/07/30 09:25:49;;;;;;;6.55;1.60;;;;;;;22.49;45.36;101098.94;16110903;19;130227;-64
2023/07/30 09:31:11;;;;;;;7.15;1.98;;;;;;;22.49;45.95;101098.13;16112768;19;130616;-63
2023/07/30 09:36:44;;;;;;;10.20;2.05;;;;;;;22.50;45.68;101106.19;16114061;19;129610;-64
2023/07/30 09:42:06;;;;;;;10.32;2.05;;;;;;;22.51;45.88;101101.47;16113485;19;130742;-64
2023/07/30 09:47:30;;;;;;;4.78;1.67;;;;;;;22.52;45.63;101109.56;16113859;19;129639;-64
2023/07/30 09:52:54;;;;;;;7.40;1.75;;;;;;;22.54;45.50;101112.06;16109321;19;129543;-64
2023/07/30 09:58:16;;;;;;;5.97;1.70;;;;;;;22.58;45.50;101121.59;16113495;19;130013;-63
2023/07/30 10:03:39;;;;;;;7.28;1.80;;;;;;;22.58;45.40;101136.38;16120402;19;135777;-64
2023/07/30 10:09:01;;;;;;;7.57;2.00;;;;;;;22.57;45.26;101142.22;16126910;19;129625;-64
2023/07/30 10:14:25;;;;;;;5.70;1.50;;;;;;;22.59;45.35;101138.03;16128326;19;130483;-63
2023/07/30 10:19:48;;;;;;;6.97;1.50;;;;;;;22.61;45.29;101145.31;16126832;19;129345;-64
2023/07/30 10:25:12;;;;;;;10.07;1.75;;;;;;;22.62;45.31;101152.56;16127273;19;129711;-64
2023/07/30 10:30:34;;;;;;;6.15;1.63;;;;;;;22.60;45.16;101161.22;16128354;19;129739;-64
2023/07/30 10:35:56;;;;;;;4.40;1.35;;;;;;;22.61;45.04;101157.31;16128380;19;131152;-64
2023/07/30 10:41:21;;;;;;;11.07;1.10;;;;;;;22.62;45.08;101152.56;16121677;19;130271;-63
2023/07/30 10:46:43;;;;;;;5.10;1.13;;;;;;;22.63;45.49;101149.53;16122460;19;130454;-63
2023/07/30 10:52:06;;;;;;;3.38;1.30;;;;;;;22.64;44.95;101161.50;16124213;19;129818;-63
2023/07/30 10:57:34;;;;;;;6.68;1.40;;;;;;;22.65;45.07;101157.59;16123028;19;131718;-63
2023/07/30 11:02:56;;;;;;;4.50;1.33;;;;;;;22.64;44.90;101155.94;16122357;19;130119;-62
2023/07/30 11:08:18;;;;;;;5.70;1.30;;;;;;;22.65;44.95;101152.84;16124833;19;130713;-64
2023/07/30 11:13:46;;;;;;;3.72;0.80;;;;;;;22.63;45.18;101149.53;16124644;19;130351;-64
2023/07/30 11:19:09;;;;;;;5.53;1.52;;;;;;;22.64;45.37;101156.78;16124029;19;129676;-64
2023/07/30 11:24:36;;;;;;;5.35;1.33;;;;;;;22.63;45.01;101166.25;16122170;19;129587;-63
2023/07/30 11:29:58;;;;;;;4.78;0.90;;;;;;;22.59;45.32;101165.09;16123023;19;129835;-63
2023/07/30 11:35:20;;;;;;;4.03;1.10;;;;;;;22.54;44.98;101182.63;16121031;19;130391;-64
2023/07/30 11:40:43;;;;;;;5.28;1.20;;;;;;;22.52;44.93;101187.63;16122729;19;129746;-64
2023/07/30 11:46:14;;;;;;;4.70;1.13;;;;;;;22.57;45.01;101193.25;16121130;19;131371;-63
2023/07/30 11:51:36;;;;;;;3.75;1.15;;;;;;;22.57;45.29;101184.03;16123121;19;130663;-63
2023/07/30 11:56:58;;;;;;;5.05;0.85;;;;;;;22.60;45.20;101183.50;16122932;19;130274;-64
2023/07/30 12:02:20;;;;;;;6.03;1.27;;;;;;;22.59;45.28;101179.03;16121272;19;129807;-64
2023/07/30 12:07:42;;;;;;;4.18;1.30;;;;;;;22.58;45.24;101182.94;16127302;19;129366;-64
2023/07/30 12:13:11;;;;;;;6.63;1.35;;;;;;;22.60;44.99;101183.50;16126230;19;129593;-64
2023/07/30 12:18:33;;;;;;;4.68;1.25;;;;;;;22.57;45.26;101184.03;16124610;19;129632;-64
2023/07/30 12:23:55;;;;;;;3.67;1.05;;;;;;;22.57;45.08;101181.25;16122636;19;130814;-63
2023/07/30 12:29:16;;;;;;;3.88;1.10;;;;;;;22.56;45.26;101176.78;16125645;19;130757;-64
2023/07/30 12:34:38;;;;;;;4.00;0.93;;;;;;;22.59;45.07;101184.63;16127281;19;130612;-64
2023/07/30 12:40:01;;;;;;;2.83;1.02;;;;;;;22.60;45.24;101200.25;16124585;19;129437;-64
2023/07/30 12:45:23;;;;;;;5.15;1.10;;;;;;;22.62;45.26;101180.44;16123314;19;129662;-64
2023/07/30 12:50:45;;;;;;;2.83;1.08;;;;;;;22.61;44.87;101171.25;16125111;19;129588;-62
2023/07/30 12:56:07;;;;;;;2.80;0.80;;;;;;;22.62;45.45;101166.50;16127598;19;129337;-62
2023/07/30 13:01:29;;;;;;;4.13;0.98;;;;;;;22.62;45.03;101172.94;16136458;19;129834;-62
2023/07/30 13:06:51;;;;;;;2.72;0.93;;;;;;;22.59;45.38;101177.06;16130893;19;129254;-63
2023/07/30 13:12:13;;;;;;;2.72;0.95;;;;;;;22.61;45.10;101171.25;16126182;19;130743;-63
2023/07/30 13:17:35;;;;;;;4.63;0.80;;;;;;;22.61;44.95;101165.69;16123863;19;130442;-63
2023/07/30 13:22:57;;;;;;;2.72;0.80;;;;;;;22.63;45.08;101173.75;16122658;19;129597;-61
2023/07/30 13:28:19;;;;;;;3.47;1.05;;;;;;;22.63;44.93;101177.41;16114984;19;130311;-62
2023/07/30 13:33:41;;;;;;;3.55;1.05;;;;;;;22.64;45.02;101173.50;16111123;19;129775;-64
2023/07/30 13:39:03;;;;;;;3.25;0.90;;;;;;;22.64;45.02;101183.81;16120798;19;130635;-64
2023/07/30 13:44:26;;;;;;;2.88;1.00;;;;;;;22.63;44.88;101183.00;16130182;19;131620;-63
2023/07/30 13:49:48;;;;;;;2.47;0.80;;;;;;;22.64;44.84;101189.38;16126209;19;131188;-64
2023/07/30 13:55:10;;;;;;;4.30;0.90;;;;;;;22.65;45.03;101180.75;16125612;19;130363;-62
2023/07/30 14:00:32;;;;;;;3.97;0.90;;;;;;;22.66;44.50;101192.75;16125575;19;131459;-63
2023/07/30 14:05:54;;;;;;;3.47;0.90;;;;;;;22.64;44.73;101184.66;16124882;19;130034;-63
2023/07/30 14:11:15;;;;;;;4.28;0.70;;;;;;;22.66;44.78;101171.28;16123949;19;129815;-63
2023/07/30 14:16:38;;;;;;;3.45;1.00;;;;;;;22.64;44.75;101175.44;16126284;19;129802;-63
2023/07/30 14:22:00;;;;;;;4.82;0.50;;;;;;;22.65;44.72;101188.28;16126631;19;129303;-63
2023/07/30 14:27:24;;;;;;;4.53;0.90;;;;;;;22.66;44.60;101174.06;16125975;19;129485;-63
2023/07/30 14:32:46;;;;;;;3.90;1.00;;;;;;;22.66;44.59;101176.84;16173340;19;130536;-63
2023/07/30 14:38:09;;;;;;;2.95;0.90;;;;;;;22.66;44.26;101182.44;16197513;19;128693;-63
2023/07/30 14:43:31;;;;;;;6.93;1.10;;;;;;;22.65;44.72;101168.75;16199127;19;129469;-62
2023/07/30 14:48:53;;;;;;;1.98;0.52;;;;;;;22.63;44.71;101180.19;16203914;19;128496;-62
2023/07/30 14:54:15;;;;;;;2.42;0.70;;;;;;;22.63;44.79;101188.56;16213890;19;128424;-63
2023/07/30 14:59:37;;;;;;;2.72;0.80;;;;;;;22.63;44.40;101190.50;16212243;19;129080;-63
2023/07/30 15:04:59;;;;;;;4.43;0.95;;;;;;;22.62;44.40;101189.66;16215669;19;129635;-63
2023/07/30 15:10:21;;;;;;;3.40;0.88;;;;;;;22.62;44.37;101184.09;16211114;19;129519;-63
2023/07/30 15:15:44;;;;;;;4.35;0.90;;;;;;;22.62;44.48;101192.47;16212519;19;128767;-63
2023/07/30 15:21:08;;;;;;;3.20;1.15;;;;;;;22.61;44.33;101196.34;16207310;19;128888;-62
2023/07/30 15:26:30;;;;;;;2.33;0.80;;;;;;;22.59;44.33;101198.56;16204682;19;129517;-64
2023/07/30 15:31:52;;;;;;;3.22;0.82;;;;;;;22.56;44.36;101187.94;16208503;19;130281;-63
2023/07/30 15:37:15;;;;;;;4.63;0.90;;;;;;;22.53;44.21;101202.41;16201937;19;129540;-63
2023/07/30 15:42:36;;;;;;;3.85;1.15;;;;;;;22.52;44.01;101212.72;16172353;19;129484;-64
2023/07/30 15:47:59;;;;;;;6.55;1.20;;;;;;;22.50;43.99;101244.78;16124716;19;131986;-62
2023/07/30 15:53:21;;;;;;;3.53;1.10;;;;;;;22.48;43.90;101255.34;16120021;19;129304;-64
2023/07/30 15:58:43;;;;;;;6.35;1.52;;;;;;;22.44;43.99;101278.16;16117830;19;130910;-64
2023/07/30 16:04:05;;;;;;;3.80;1.48;;;;;;;22.42;43.71;101283.16;16118877;19;130292;-64
2023/07/30 16:09:27;;;;;;;7.88;1.48;;;;;;;22.40;43.91;101279.78;16120755;19;129598;-63
2023/07/30 16:14:51;;;;;;;5.85;2.00;;;;;;;22.40;43.66;101274.22;16121248;19;129570;-63
2023/07/30 16:20:13;;;;;;;8.02;2.00;;;;;;;22.38;43.99;101265.31;16120284;19;131646;-62
2023/07/30 16:25:35;;;;;;;4.38;1.80;;;;;;;22.38;44.58;101259.72;16119097;19;130373;-64
2023/07/30 16:30:57;;;;;;;8.77;1.73;;;;;;;22.37;44.27;101266.41;16119658;19;129671;-62
2023/07/30 16:36:20;;;;;;;5.78;1.92;;;;;;;22.36;44.38;101261.94;16118316;19;129519;-63
2023/07/30 16:41:42;;;;;;;4.95;1.50;;;;;;;22.36;44.40;101256.34;16124233;19;129469;-63
2023/07/30 16:47:05;;;;;;;19.27;2.70;;;;;;;22.36;44.48;101264.72;16122109;19;130178;-64
2023/07/30 16:52:26;;;;;;;10.73;1.92;;;;;;;22.36;44.89;101264.72;16120454;19;130810;-64
2023/07/30 16:57:48;;;;;;;10.88;2.25;;;;;;;22.35;44.82;101263.03;16123115;19;130019;-63
2023/07/30 17:03:10;;;;;;;7.47;2.08;;;;;;;22.35;44.92;101267.75;16113916;19;129160;-63
2023/07/30 17:08:33;;;;;;;9.30;2.20;;;;;;;22.34;45.31;101268.88;16121238;19;130485;-63
2023/07/30 17:13:56;;;;;;;5.07;1.85;;;;;;;22.32;45.34;101260.78;16118580;19;129628;-64
2023/07/30 17:19:18;;;;;;;9.18;1.90;;;;;;;22.31;45.21;101261.88;16119053;19;130123;-64
2023/07/30 17:24:40;;;;;;;7.90;1.98;;;;;;;22.29;45.39;101250.13;16117223;19;129794;-63
2023/07/30 17:30:02;;;;;;;11.57;2.05;;;;;;;22.28;45.81;101254.03;16119275;19;130224;-63
2023/07/30 17:35:24;;;;;;;16.35;2.83;;;;;;;22.27;45.58;101235.66;16116111;19;129937;-64
2023/07/30 17:40:51;;;;;;;13.40;3.17;;;;;;;22.30;45.89;101235.09;16118673;19;130537;-65
2023/07/30 17:46:13;;;;;;;11.50;2.50;;;;;;;22.32;45.97;101232.91;16118143;19;132791;-63
2023/07/30 17:51:35;;;;;;;8.13;2.10;;;;;;;22.35;46.09;101220.38;16115464;19;129996;-63
2023/07/30 17:56:58;;;;;;;7.45;1.98;;;;;;;22.35;46.58;101220.38;16122256;19;130457;-63
2023/07/30 18:02:20;;;;;;;6.72;2.03;;;;;;;22.36;45.97;101199.75;16120422;19;130179;-62
2023/07/30 18:07:42;;;;;;;11.55;2.20;;;;;;;22.36;46.27;101196.97;16114679;19;129666;-63
2023/07/30 18:13:05;;;;;;;6.05;2.05;;;;;;;22.37;46.23;101188.34;16114286;19;129469;-63
2023/07/30 18:18:27;;;;;;;10.90;2.35;;;;;;;22.38;46.54;101192.81;16114125;19;130145;-64
2023/07/30 18:23:51;;;;;;;11.65;2.33;;;;;;;22.39;46.62;101182.50;16115173;19;129642;-64
2023/07/30 18:29:13;;;;;;;15.02;2.47;;;;;;;22.38;46.50;101162.16;16129230;19;129478;-63
2023/07/30 18:34:36;;;;;;;10.55;2.20;;;;;;;22.38;46.40;101170.53;16128906;19;129720;-65
2023/07/30 18:39:59;;;;;;;10.85;1.80;;;;;;;22.37;46.84;101180.00;16126001;19;131776;-68
2023/07/30 18:45:21;;;;;;;12.35;1.75;;;;;;;22.38;47.02;101176.09;16122766;19;129938;-63
2023/07/30 18:50:43;;;;;;;12.32;2.42;;;;;;;22.38;46.84;101169.66;16122770;19;129863;-70
2023/07/30 18:56:05;;;;;;;18.38;2.28;;;;;;;22.39;46.75;101175.00;16119888;19;129468;-67
2023/07/30 19:01:27;;;;;;;12.27;2.08;;;;;;;22.39;47.21;101177.78;16121822;19;130036;-59
2023/07/30 19:06:50;;;;;;;10.20;1.67;;;;;;;22.41;47.13;101169.16;16117379;19;130363;-65
2023/07/30 19:12:12;;;;;;;13.18;2.42;;;;;;;22.43;47.03;101178.09;16124650;19;129201;-63
2023/07/30 19:17:34;;;;;;;7.00;2.05;;;;;;;22.42;47.50;101174.44;16123363;19;129673;-64
2023/07/30 19:22:56;;;;;;;7.32;1.60;;;;;;;22.42;47.15;101165.25;16125212;19;129562;-61
2023/07/30 19:28:19;;;;;;;8.15;1.63;;;;;;;22.39;47.32;101169.44;16121205;19;130553;-63
2023/07/30 19:33:41;;;;;;;18.73;2.30;;;;;;;22.35;47.24;101159.03;16121512;19;129705;-62
2023/07/30 19:39:04;;;;;;;13.05;2.20;;;;;;;22.32;47.28;101163.22;16118181;19;130608;-62
2023/07/30 19:44:27;;;;;;;10.00;1.95;;;;;;;22.30;47.25;101164.59;16116048;19;129835;-62
2023/07/30 19:49:49;;;;;;;9.00;1.70;;;;;;;22.27;47.27;101155.66;16119746;19;129662;-61
2023/07/30 19:55:11;;;;;;;7.60;1.73;;;;;;;22.25;47.28;101160.66;16117155;19;130504;-62
2023/07/30 20:00:33;;;;;;;7.90;1.90;;;;;;;22.24;47.19;101153.41;16116045;19;132715;-62
2023/07/30 20:06:04;;;;;;;6.07;1.73;;;;;;;22.26;47.47;101150.34;16117968;19;130275;-62
2023/07/30 20:11:26;;;;;;;8.68;2.20;;;;;;;22.22;47.59;101149.19;16117681;19;129926;-63
2023/07/30 20:16:48;;;;;;;4.78;1.50;;;;;;;22.21;47.31;101147.50;16118396;19;131269;-63
2023/07/30 20:22:12;;;;;;;6.25;1.80;;;;;;;22.19;47.10;101149.69;16117412;19;129628;-61
2023/07/30 20:27:33;;;;;;;6.00;1.90;;;;;;;22.17;47.40;101146.31;16119926;19;129787;-62
2023/07/30 20:32:55;;;;;;;7.13;1.90;;;;;;;22.17;47.31;101151.91;16117866;19;130504;-62
2023/07/30 20:38:17;;;;;;;3.45;1.45;;;;;;;22.17;47.57;101151.91;16116719;19;130070;-62
2023/07/30 20:43:41;;;;;;;4.97;1.73;;;;;;;22.16;47.46;101158.56;16119092;19;129629;-62
2023/07/30 20:49:03;;;;;;;10.80;2.05;;;;;;;22.16;47.33;101153.00;16115383;19;130159;-63
2023/07/30 20:54:26;;;;;;;5.93;1.83;;;;;;;22.15;47.12;101157.75;16115739;19;130258;-62
2023/07/30 20:59:48;;;;;;;7.13;1.77;;;;;;;22.14;47.24;101161.63;16115885;19;129555;-63
2023/07/30 21:05:10;;;;;;;5.47;2.00;;;;;;;22.12;47.14;101164.69;16113979;19;129490;-62
2023/07/30 21:10:31;;;;;;;5.20;1.60;;;;;;;22.12;47.25;101161.91;16115961;19;129281;-62
2023/07/30 21:15:53;;;;;;;5.20;1.80;;;;;;;22.11;47.18;101154.66;16115256;19;133639;-63
2023/07/30 21:21:15;;;;;;;6.10;2.38;;;;;;;22.11;47.34;101156.59;16113956;19;129581;-62
2023/07/30 21:26:37;;;;;;;4.85;1.80;;;;;;;22.11;47.69;101153.78;16112575;19;129815;-62
2023/07/30 21:31:59;;;;;;;3.38;1.60;;;;;;;22.10;47.45;101152.13;16113774;19;129865;-63
2023/07/30 21:37:23;;;;;;;5.43;1.77;;;;;;;22.09;47.19;101151.28;16111035;19;131737;-62
2023/07/30 21:42:46;;;;;;;4.97;2.05;;;;;;;22.09;47.53;101158.81;16107930;19;129357;-62
2023/07/30 21:48:07;;;;;;;9.38;2.00;;;;;;;22.08;47.41;101149.59;16110689;19;129788;-62
2023/07/30 21:53:31;;;;;;;5.75;2.25;;;;;;;22.09;47.56;101147.69;16105512;19;130570;-62
2023/07/30 21:58:52;;;;;;;5.03;2.10;;;;;;;22.08;47.16;101148.78;16110962;19;130792;-62
2023/07/30 22:04:14;;;;;;;6.35;2.42;;;;;;;22.07;47.38;101145.13;16119675;19;130784;-62
2023/07/30 22:09:39;;;;;;;5.60;2.00;;;;;;;22.07;47.35;101142.34;16123378;19;130015;-63
2023/07/30 22:15:01;;;;;;;6.00;2.30;;;;;;;22.07;47.46;101149.88;16126500;19;129831;-62
2023/07/30 22:20:23;;;;;;;5.45;2.35;;;;;;;22.06;47.47;101146.25;16125165;19;129958;-63
2023/07/30 22:25:45;;;;;;;4.65;1.90;;;;;;;22.05;47.67;101150.13;16125553;19;129354;-62
2023/07/30 22:31:07;;;;;;;3.90;2.00;;;;;;;22.04;47.44;101148.44;16121941;19;129910;-62
2023/07/30 22:36:29;;;;;;;4.68;2.10;;;;;;;22.03;47.56;101146.75;16123974;19;129756;-62
2023/07/30 22:41:51;;;;;;;4.80;2.00;;;;;;;22.02;47.15;101139.53;16126456;19;130556;-62
2023/07/30 22:47:13;;;;;;;4.32;1.75;;;;;;;22.03;47.35;101134.78;16121378;19;129657;-62
2023/07/30 22:52:34;;;;;;;5.72;2.40;;;;;;;22.03;47.38;101134.78;16122473;19;131139;-62
2023/07/30 22:57:56;;;;;;;4.10;1.77;;;;;;;22.01;47.54;101132.28;16126953;19;130176;-62
2023/07/30 23:03:18;;;;;;;6.60;2.50;;;;;;;22.00;47.44;101136.16;16123863;19;134548;-62
2023/07/30 23:08:40;;;;;;;5.43;2.15;;;;;;;22.00;47.37;101124.16;16122208;19;129594;-62
2023/07/30 23:14:02;;;;;;;4.00;2.13;;;;;;;22.01;47.50;101125.84;16124489;19;129893;-62
2023/07/30 23:19:25;;;;;;;5.45;2.03;;;;;;;22.00;47.40;101133.38;16124160;19;130312;-62
2023/07/30 23:24:47;;;;;;;5.53;2.47;;;;;;;21.98;47.38;101122.47;16116584;19;130124;-62
2023/07/30 23:30:09;;;;;;;3.70;1.75;;;;;;;21.98;47.71;101111.34;16118686;19;130662;-62
2023/07/30 23:35:31;;;;;;;2.35;1.70;;;;;;;21.98;47.83;101116.09;16120844;19;129396;-63
2023/07/30 23:40:53;;;;;;;3.75;1.80;;;;;;;21.96;47.46;101110.78;16120253;19;132926;-63
2023/07/30 23:46:15;;;;;;;3.30;1.67;;;;;;;21.97;47.29;101115.22;16116726;19;129632;-62
2023/07/30 23:51:37;;;;;;;4.93;2.17;;;;;;;21.97;47.69;101114.41;16121885;19;130125;-61
2023/07/30 23:57:00;;;;;;;3.80;1.60;;;;;;;21.95;47.33;101103.53;16120356;19;130094;-62
